Time;durP1;ratioP1;P1;durP2;ratioP2;P2;SDS_P1;SDS_P2;PMS_P1;PMS_P2;Temp;Humidity;BMP_temperature;BMP_pressure;BME280_temperature;BME280_humidity;BME280_pressure;Samples;Min_cycle;Max_cycle;Signal;HPM_P1;HPM_P2
2021/12/19 00:02:24;;;;;;;8.23;3.60;;;;;;;4.09;100.00;103816.53;4973693;28;20136;-73
2021/12/19 00:10:25;;;;;;;10.75;4.20;;;;;;;4.11;100.00;103805.16;4974609;28;20370;-72
2021/12/19 00:12:53;;;;;;;10.57;4.93;;;;;;;4.13;100.00;103802.56;4972214;28;20101;-73
2021/12/19 00:15:21;;;;;;;9.75;4.60;;;;;;;4.14;100.00;103803.47;4970898;28;20137;-72
2021/12/19 00:17:49;;;;;;;14.32;5.68;;;;;;;4.15;100.00;103800.00;4972202;28;20506;-73
2021/12/19 00:20:19;;;;;;;12.57;5.90;;;;;;;4.17;100.00;103787.75;4971229;28;20059;-72
2021/12/19 00:23:07;;;;;;;10.25;4.00;;;;;;;4.13;100.00;103785.84;4971371;28;20058;-72
2021/12/19 00:25:35;;;;;;;11.48;4.45;;;;;;;4.09;100.00;103779.53;4971585;28;20130;-73
2021/12/19 00:28:03;;;;;;;9.57;4.40;;;;;;;4.06;100.00;103788.19;4974214;28;20087;-73
2021/12/19 00:30:31;;;;;;;10.38;4.15;;;;;;;4.08;100.00;103783.88;4971088;28;20054;-73
2021/12/19 00:32:59;;;;;;;12.15;5.03;;;;;;;4.09;100.00;103777.78;4974607;28;20306;-72
2021/12/19 00:35:29;;;;;;;13.35;5.90;;;;;;;4.15;100.00;103771.81;4970780;28;20113;-73
2021/12/19 00:37:57;;;;;;;12.75;5.35;;;;;;;4.18;100.00;103774.59;4972864;28;20145;-72
2021/12/19 00:40:24;;;;;;;12.48;5.47;;;;;;;4.23;100.00;103774.81;4974428;28;20554;-73
2021/12/19 00:43:02;;;;;;;13.48;5.30;;;;;;;4.21;100.00;103772.09;4969377;28;20117;-73
2021/12/19 00:45:33;;;;;;;14.20;5.35;;;;;;;4.26;100.00;103778.47;4972570;28;20511;-73
2021/12/19 00:48:03;;;;;;;12.77;5.25;;;;;;;4.32;100.00;103766.34;4973151;28;20054;-73
2021/12/19 00:50:33;;;;;;;13.52;5.82;;;;;;;4.36;100.00;103765.59;4973044;28;20057;-73
2021/12/19 00:53:01;;;;;;;15.60;5.90;;;;;;;4.37;100.00;103763.03;4970170;28;20152;-72
2021/12/19 00:55:29;;;;;;;13.55;5.57;;;;;;;4.38;100.00;103761.31;4973275;28;20051;-73
2021/12/19 00:57:57;;;;;;;11.52;5.00;;;;;;;4.40;100.00;103764.91;4973941;28;20064;-70
2021/12/19 01:00:30;;;;;;;14.10;5.32;;;;;;;4.42;100.00;103755.28;4971537;28;20061;-70
2021/12/19 01:03:00;;;;;;;17.27;5.85;;;;;;;4.42;100.00;103747.34;4972225;28;20513;-70
2021/12/19 01:05:30;;;;;;;13.57;4.95;;;;;;;4.43;100.00;103750.06;4956133;28;20137;-70
2021/12/19 01:07:59;;;;;;;11.30;4.35;;;;;;;4.45;100.00;103745.75;4970582;28;20062;-70
2021/12/19 01:10:28;;;;;;;11.68;4.00;;;;;;;4.44;100.00;103751.88;4956296;28;20050;-70
2021/12/19 01:12:56;;;;;;;12.48;3.75;;;;;;;4.44;100.00;103746.59;4970853;28;20062;-70
2021/12/19 01:15:24;;;;;;;14.75;4.47;;;;;;;4.40;100.00;103747.28;4975864;28;20057;-70
2021/12/19 01:17:52;;;;;;;14.52;4.43;;;;;;;4.42;100.00;103739.44;4950666;28;20392;-70
2021/12/19 01:20:24;;;;;;;13.63;4.60;;;;;;;4.41;100.00;103733.25;4971385;28;20058;-72
2021/12/19 01:22:52;;;;;;;11.88;4.20;;;;;;;4.45;100.00;103743.09;4971559;28;20595;-70
2021/12/19 01:25:22;;;;;;;9.18;3.90;;;;;;;4.47;100.00;103737.88;4970615;28;20470;-69
2021/12/19 01:27:50;;;;;;;11.40;4.50;;;;;;;4.47;100.00;103732.56;4970749;28;20086;-70
2021/12/19 01:30:18;;;;;;;9.90;3.20;;;;;;;4.53;100.00;103735.47;4974260;28;20066;-69
2021/12/19 01:32:47;;;;;;;12.25;4.18;;;;;;;4.51;100.00;103729.19;4973372;28;20050;-69
2021/12/19 01:35:19;;;;;;;11.07;3.97;;;;;;;4.52;100.00;103735.41;4970720;28;20050;-69
2021/12/19 01:37:48;;;;;;;15.68;5.57;;;;;;;4.52;100.00;103732.75;4973531;28;20141;-72
2021/12/19 01:40:18;;;;;;;15.68;4.55;;;;;;;4.50;100.00;103727.41;4969326;28;20054;-72
2021/12/19 01:42:50;;;;;;;12.85;5.10;;;;;;;4.48;100.00;103722.06;4971917;28;20057;-72
2021/12/19 01:45:25;;;;;;;15.02;5.28;;;;;;;4.51;100.00;103725.66;4973373;28;20057;-72
2021/12/19 01:47:53;;;;;;;13.55;5.05;;;;;;;4.52;100.00;103731.00;4971586;28;20093;-72
2021/12/19 01:50:22;;;;;;;16.40;5.38;;;;;;;4.51;100.00;103720.38;4969291;28;20051;-72
2021/12/19 01:52:51;;;;;;;17.52;5.78;;;;;;;4.51;100.00;103721.25;4971150;28;20051;-72
2021/12/19 01:55:19;;;;;;;15.18;5.07;;;;;;;4.57;100.00;103713.59;4967513;28;20057;-72
2021/12/19 01:57:49;;;;;;;16.15;5.43;;;;;;;4.58;100.00;103715.41;4974443;28;20050;-72
2021/12/19 02:00:21;;;;;;;17.25;5.43;;;;;;;4.61;100.00;103710.19;4971510;28;20186;-72
2021/12/19 02:02:50;;;;;;;23.35;6.15;;;;;;;4.63;100.00;103711.19;4972528;28;20060;-72
2021/12/19 02:05:19;;;;;;;19.73;6.03;;;;;;;4.64;100.00;103717.38;4972638;28;20411;-72
2021/12/19 02:07:49;;;;;;;20.50;6.22;;;;;;;4.66;100.00;103713.91;4971503;28;20082;-70
2021/12/19 02:10:19;;;;;;;19.85;6.07;;;;;;;4.70;100.00;103701.75;4971417;28;20129;-70
2021/12/19 02:12:51;;;;;;;15.00;5.97;;;;;;;4.73;100.00;103707.13;4969938;28;20117;-70
2021/12/19 02:15:22;;;;;;;19.73;5.30;;;;;;;4.63;100.00;103712.91;4967898;28;20113;-70
2021/12/19 02:17:51;;;;;;;17.08;5.97;;;;;;;4.69;100.00;103707.88;4970466;28;20050;-72
2021/12/19 02:20:22;;;;;;;16.80;5.80;;;;;;;4.65;100.00;103709.50;4970098;28;20058;-72
2021/12/19 02:22:50;;;;;;;17.67;5.55;;;;;;;4.69;100.00;103707.88;4972673;28;20518;-72
2021/12/19 02:25:21;;;;;;;18.52;6.45;;;;;;;4.63;100.00;103700.59;4972950;28;20173;-73
2021/12/19 02:27:50;;;;;;;24.52;7.80;;;;;;;4.66;100.00;103691.88;4971916;28;20297;-72
2021/12/19 02:30:17;;;;;;;19.75;8.10;;;;;;;4.67;100.00;103691.03;4971880;28;20051;-72
2021/12/19 02:32:45;;;;;;;24.77;8.45;;;;;;;4.66;100.00;103687.47;4970160;28;20141;-72
2021/12/19 02:35:19;;;;;;;24.08;8.65;;;;;;;4.67;100.00;103683.09;4972932;28;20046;-69
2021/12/19 02:48:09;;;;;;;20.83;7.35;;;;;;;4.71;100.00;103678.81;4970548;28;20166;-70
2021/12/19 02:48:56;;;;;;;18.70;7.35;;;;;;;4.74;100.00;103669.25;4971174;28;20491;-70
2021/12/19 02:51:30;;;;;;;24.35;7.80;;;;;;;4.78;100.00;103670.28;4972922;28;20069;-70
2021/12/19 02:54:00;;;;;;;26.13;8.10;;;;;;;4.80;100.00;103672.16;4971565;28;20371;-70
2021/12/19 02:56:29;;;;;;;21.30;7.18;;;;;;;4.81;100.00;103666.00;4970753;28;20059;-70
2021/12/19 02:58:56;;;;;;;21.98;7.57;;;;;;;4.83;100.00;103658.09;4970049;28;20073;-70
2021/12/19 03:01:27;;;;;;;22.73;7.13;;;;;;;4.85;100.00;103651.13;4970361;28;20069;-70
2021/12/19 03:03:54;;;;;;;21.63;7.28;;;;;;;4.87;100.00;103646.81;4971483;28;20322;-69
2021/12/19 03:06:24;;;;;;;19.10;6.07;;;;;;;4.90;100.00;103659.25;4969022;28;20542;-70
2021/12/19 03:08:52;;;;;;;21.38;6.53;;;;;;;4.92;100.00;103647.88;4966811;28;20494;-70
2021/12/19 03:12:00;;;;;;;22.92;5.80;;;;;;;4.96;100.00;103638.31;4969823;28;20487;-70
2021/12/19 03:20:02;;;;;;;10.43;3.20;;;;;;;5.19;100.00;103634.72;4967618;28;20055;-69
2021/12/19 03:22:29;;;;;;;8.98;2.90;;;;;;;5.24;100.00;103622.53;4972242;28;20061;-69
2021/12/19 03:24:57;;;;;;;7.53;3.08;;;;;;;5.22;100.00;103629.50;4969374;28;20150;-68
2021/12/19 03:27:27;;;;;;;9.90;2.95;;;;;;;5.22;100.00;103618.91;4973858;28;20066;-69
2021/12/19 03:29:55;;;;;;;7.60;2.95;;;;;;;5.24;100.00;103605.75;4971877;28;20077;-69
2021/12/19 03:32:25;;;;;;;9.52;2.90;;;;;;;5.24;100.00;103604.00;4976111;28;20061;-68
2021/12/19 03:34:53;;;;;;;10.18;3.35;;;;;;;5.27;100.00;103599.66;4973179;28;20059;-68
2021/12/19 03:37:20;;;;;;;9.63;3.08;;;;;;;5.26;100.00;103593.47;4974525;28;20151;-69
2021/12/19 03:39:57;;;;;;;10.23;3.25;;;;;;;5.23;100.00;103591.59;4975751;28;20093;-69
2021/12/19 03:42:27;;;;;;;10.38;3.45;;;;;;;5.26;100.00;103588.19;4973814;28;20058;-69
2021/12/19 03:44:55;;;;;;;9.48;2.90;;;;;;;5.25;100.00;103586.38;4972889;28;20162;-70
2021/12/19 03:47:23;;;;;;;4.70;2.25;;;;;;;5.24;100.00;103582.84;4971993;28;20080;-71
2021/12/19 03:49:52;;;;;;;5.47;2.08;;;;;;;5.24;100.00;103577.53;4971233;28;20055;-68
2021/12/19 03:52:19;;;;;;;5.18;2.15;;;;;;;5.25;100.00;103586.38;4976423;28;20051;-71
2021/12/19 03:54:47;;;;;;;8.52;2.42;;;;;;;5.25;100.00;103586.38;4970736;28;20407;-70
2021/12/19 03:57:15;;;;;;;5.53;2.15;;;;;;;5.26;100.00;103581.97;4973298;28;20073;-70
2021/12/19 03:59:47;;;;;;;6.45;2.33;;;;;;;5.28;100.00;103586.47;4970831;28;20046;-70
2021/12/19 04:02:23;;;;;;;4.77;2.03;;;;;;;5.27;100.00;103589.97;4974467;28;20058;-70
2021/12/19 04:04:51;;;;;;;4.85;2.05;;;;;;;5.31;100.00;103588.31;4973388;28;20042;-73
2021/12/19 04:07:19;;;;;;;6.95;2.47;;;;;;;5.27;100.00;103579.38;4973283;28;20117;-73
2021/12/19 04:09:47;;;;;;;5.72;1.77;;;;;;;5.30;100.00;103579.47;4971963;28;20138;-73
2021/12/19 04:12:15;;;;;;;4.57;2.15;;;;;;;5.29;100.00;103572.38;4968817;28;20105;-73
2021/12/19 04:14:45;;;;;;;5.28;1.70;;;;;;;5.32;100.00;103566.28;4974258;28;20074;-72
2021/12/19 04:17:13;;;;;;;5.43;2.03;;;;;;;5.31;100.00;103562.75;4972617;28;20383;-73
2021/12/19 04:19:41;;;;;;;6.47;2.10;;;;;;;5.33;100.00;103561.06;4974357;28;20099;-72
2021/12/19 04:22:08;;;;;;;6.20;2.33;;;;;;;5.33;100.00;103546.91;4970775;28;20137;-73
2021/12/19 04:24:36;;;;;;;7.80;3.00;;;;;;;5.36;100.00;103550.56;4972416;28;20064;-72
2021/12/19 04:27:05;;;;;;;8.20;2.63;;;;;;;5.36;100.00;103550.56;4972132;28;20042;-73
2021/12/19 04:29:32;;;;;;;6.97;2.80;;;;;;;5.39;100.00;103542.69;4971904;28;20054;-72
2021/12/19 04:32:02;;;;;;;9.43;2.75;;;;;;;5.41;100.00;103545.41;4974205;28;20497;-72
2021/12/19 04:34:29;;;;;;;9.88;2.63;;;;;;;5.42;100.00;103548.09;4972861;28;20050;-72
2021/12/19 04:37:04;;;;;;;9.10;2.75;;;;;;;5.41;100.00;103543.69;4971938;28;20061;-73
2021/12/19 04:39:40;;;;;;;14.48;3.40;;;;;;;5.42;100.00;103545.44;4971851;28;20074;-73
2021/12/19 04:53:30;;;;;;;10.02;2.92;;;;;;;5.49;100.00;103535.06;4969685;28;20145;-69
2021/12/19 04:56:25;;;;;;;6.93;2.85;;;;;;;5.49;100.00;103533.31;4974004;28;21105;-69
2021/12/19 04:59:13;;;;;;;7.03;2.50;;;;;;;5.49;100.00;103525.38;4969651;28;20464;-69
2021/12/19 05:02:05;;;;;;;8.43;2.80;;;;;;;5.48;100.00;103522.66;4971923;28;20129;-70
2021/12/19 05:15:44;;;;;;;7.45;2.70;;;;;;;5.54;100.00;103531.72;4971286;28;20357;-70
2021/12/19 05:18:12;;;;;;;10.63;2.78;;;;;;;5.55;100.00;103532.59;4968832;28;20054;-70
2021/12/19 05:20:51;;;;;;;7.25;2.60;;;;;;;5.56;100.00;103527.34;4971613;28;20369;-69
2021/12/19 05:23:24;;;;;;;8.13;2.80;;;;;;;5.58;100.00;103522.09;4972288;28;20134;-70
2021/12/19 05:25:53;;;;;;;8.30;3.25;;;;;;;5.59;100.00;103534.50;4972278;28;20064;-70
2021/12/19 05:28:21;;;;;;;8.20;2.92;;;;;;;5.62;100.00;103539.91;4972285;28;20090;-70
2021/12/19 05:30:50;;;;;;;7.93;2.85;;;;;;;5.63;100.00;103544.34;4969887;28;20058;-70
2021/12/19 05:33:18;;;;;;;9.48;3.20;;;;;;;5.64;100.00;103537.31;4971451;28;20058;-70
2021/12/19 05:36:12;;;;;;;10.32;3.38;;;;;;;5.63;100.00;103535.50;4968820;28;20058;-69
2021/12/19 05:46:59;;;;;;;6.57;2.72;;;;;;;5.57;100.00;103542.41;4969442;28;20073;-70
2021/12/19 05:49:28;;;;;;;6.68;2.67;;;;;;;5.57;100.00;103522.97;4971200;28;20112;-70
2021/12/19 05:51:57;;;;;;;6.15;2.65;;;;;;;5.57;100.00;103530.94;4972935;28;20353;-70
2021/12/19 05:54:26;;;;;;;7.57;2.28;;;;;;;5.57;100.00;103528.28;4971654;28;20059;-70
2021/12/19 05:56:54;;;;;;;5.45;2.20;;;;;;;5.58;100.00;103527.41;4970322;28;20542;-70
2021/12/19 05:59:22;;;;;;;8.82;2.85;;;;;;;5.56;100.00;103524.69;4971056;28;20057;-70
2021/12/19 06:01:50;;;;;;;6.47;1.95;;;;;;;5.52;100.00;103522.81;4972322;28;20097;-70
2021/12/19 06:04:19;;;;;;;5.18;1.98;;;;;;;5.52;100.00;103517.53;4971354;28;20058;-70
2021/12/19 06:06:48;;;;;;;3.92;1.70;;;;;;;5.52;100.00;103508.69;4971868;28;20046;-70
2021/12/19 06:09:18;;;;;;;6.88;2.17;;;;;;;5.53;100.00;103510.47;4973444;28;20158;-71
2021/12/19 06:11:46;;;;;;;7.68;3.03;;;;;;;5.53;100.00;103511.34;4968565;28;20063;-70
2021/12/19 06:14:14;;;;;;;6.75;2.58;;;;;;;5.54;100.00;103504.34;4952557;28;20054;-70
2021/12/19 06:16:42;;;;;;;7.63;2.15;;;;;;;5.54;100.00;103499.03;4971131;28;21467;-70
2021/12/19 06:19:10;;;;;;;7.22;2.33;;;;;;;5.53;100.00;103502.53;4970914;28;20777;-70
2021/12/19 06:21:39;;;;;;;7.60;2.40;;;;;;;5.54;100.00;103499.03;4954330;28;20086;-70
2021/12/19 06:24:07;;;;;;;8.48;3.22;;;;;;;5.54;100.00;103496.38;4969933;28;20077;-70
2021/12/19 06:26:37;;;;;;;5.30;2.25;;;;;;;5.54;100.00;103489.31;4971632;28;20394;-70
2021/12/19 06:29:05;;;;;;;8.15;2.47;;;;;;;5.53;100.00;103490.16;4972898;28;20157;-70
2021/12/19 06:31:33;;;;;;;6.82;2.22;;;;;;;5.55;100.00;103493.78;4969286;28;20050;-70
2021/12/19 06:34:01;;;;;;;9.52;3.47;;;;;;;5.56;100.00;103492.91;4970977;28;20093;-73
2021/12/19 06:36:30;;;;;;;5.22;2.58;;;;;;;5.58;100.00;103485.94;4973063;28;20062;-73
2021/12/19 06:38:58;;;;;;;7.70;2.60;;;;;;;5.58;100.00;103485.03;4971068;28;20122;-73
2021/12/19 06:41:26;;;;;;;6.82;2.20;;;;;;;5.60;100.00;103483.31;4969841;28;20050;-73
2021/12/19 06:43:55;;;;;;;7.43;2.42;;;;;;;5.61;100.00;103479.81;4968902;28;20050;-73
2021/12/19 06:46:24;;;;;;;8.02;2.15;;;;;;;5.64;100.00;103476.38;4971355;28;20066;-73
2021/12/19 06:48:52;;;;;;;5.60;1.92;;;;;;;5.60;100.00;103475.38;4968288;28;20054;-73
2021/12/19 06:51:21;;;;;;;5.57;2.13;;;;;;;5.59;100.00;103473.59;4972378;28;20121;-73
2021/12/19 06:53:50;;;;;;;4.95;2.00;;;;;;;5.60;100.00;103481.59;4968776;28;20070;-74
2021/12/19 06:56:18;;;;;;;6.63;1.77;;;;;;;5.61;100.00;103466.56;4969985;28;20502;-73
2021/12/19 06:58:46;;;;;;;4.45;1.30;;;;;;;5.64;100.00;103465.78;4969431;28;20046;-73
2021/12/19 07:01:15;;;;;;;2.88;1.20;;;;;;;5.59;100.00;103453.28;4970470;28;20054;-73
2021/12/19 07:03:44;;;;;;;3.20;1.70;;;;;;;5.59;100.00;103455.03;4974321;28;20050;-73
2021/12/19 07:06:16;;;;;;;3.63;1.50;;;;;;;5.60;100.00;103456.81;4974425;28;20058;-73
2021/12/19 07:08:44;;;;;;;4.07;1.70;;;;;;;5.61;100.00;103458.63;4973645;28;20505;-73
2021/12/19 07:11:13;;;;;;;3.95;1.75;;;;;;;5.61;100.00;103454.22;4975216;28;20062;-69
2021/12/19 07:13:41;;;;;;;4.85;1.80;;;;;;;5.61;100.00;103454.22;4972881;28;20051;-70
2021/12/19 07:16:09;;;;;;;5.55;2.25;;;;;;;5.64;100.00;103460.50;4973517;28;20062;-70
2021/12/19 07:18:38;;;;;;;4.93;1.83;;;;;;;5.65;100.00;103464.91;4972600;28;20093;-70
2021/12/19 07:21:07;;;;;;;6.03;2.45;;;;;;;5.65;100.00;103462.28;4973306;28;20063;-70
2021/12/19 07:23:35;;;;;;;4.95;2.00;;;;;;;5.63;100.00;103462.22;4974398;28;20141;-70
2021/12/19 07:26:05;;;;;;;4.47;2.15;;;;;;;5.57;100.00;103457.66;4973308;28;20050;-70
2021/12/19 07:28:33;;;;;;;6.03;2.10;;;;;;;5.56;100.00;103463.78;4971810;28;20046;-70
2021/12/19 07:31:01;;;;;;;4.95;1.52;;;;;;;5.49;100.00;103460.91;4972080;28;20208;-70
2021/12/19 07:33:28;;;;;;;2.58;1.27;;;;;;;5.51;100.00;103456.56;4974172;28;20073;-69
2021/12/19 07:36:00;;;;;;;4.25;1.75;;;;;;;5.48;100.00;103459.09;4971833;28;20435;-69
2021/12/19 07:38:32;;;;;;;4.60;1.63;;;;;;;5.46;100.00;103461.69;4971961;28;20699;-69
2021/12/19 07:41:02;;;;;;;3.80;1.52;;;;;;;5.44;100.00;103458.13;4969325;28;20491;-69
2021/12/19 07:43:30;;;;;;;4.53;1.38;;;;;;;5.46;100.00;103464.34;4974496;28;20475;-69
2021/12/19 07:45:58;;;;;;;6.47;1.60;;;;;;;5.42;100.00;103460.72;4972730;28;20149;-69
2021/12/19 07:48:26;;;;;;;5.97;2.00;;;;;;;5.39;100.00;103455.31;4953774;28;20055;-69
2021/12/19 07:50:54;;;;;;;5.10;2.03;;;;;;;5.40;100.00;103453.59;4971855;28;20184;-69
2021/12/19 07:53:24;;;;;;;7.15;1.80;;;;;;;5.40;100.00;103461.53;4974633;28;20054;-70
2021/12/19 07:55:52;;;;;;;6.60;1.92;;;;;;;5.42;100.00;103455.41;4975127;28;20060;-69
2021/12/19 07:58:20;;;;;;;7.82;2.20;;;;;;;5.44;100.00;103460.75;4973759;28;20062;-69
2021/12/19 08:00:49;;;;;;;3.30;1.30;;;;;;;5.42;100.00;103458.06;4975105;28;20145;-69
2021/12/19 08:03:16;;;;;;;3.13;1.70;;;;;;;5.45;100.00;103454.63;4972424;28;20071;-69
2021/12/19 08:05:45;;;;;;;7.18;2.28;;;;;;;5.46;100.00;103452.88;4973061;28;20213;-70
2021/12/19 08:08:17;;;;;;;7.60;3.13;;;;;;;5.46;100.00;103451.09;4972714;28;20046;-69
2021/12/19 08:13:32;;;;;;;4.15;1.60;;;;;;;5.51;100.00;103449.50;4971497;28;20118;-69
2021/12/19 08:16:00;;;;;;;4.65;1.90;;;;;;;5.53;100.00;103449.56;4974158;28;20181;-69
2021/12/19 08:18:28;;;;;;;8.80;2.80;;;;;;;5.53;100.00;103438.97;4969603;28;20156;-69
2021/12/19 08:20:57;;;;;;;6.25;2.50;;;;;;;5.56;100.00;103439.94;4974311;28;20086;-69
2021/12/19 08:23:28;;;;;;;11.13;3.08;;;;;;;5.57;100.00;103441.75;4974382;28;20061;-73
2021/12/19 08:25:57;;;;;;;8.02;2.72;;;;;;;5.59;100.00;103441.81;4972653;28;20313;-73
2021/12/19 08:28:25;;;;;;;9.25;3.10;;;;;;;5.61;100.00;103427.75;4973807;28;20074;-73
2021/12/19 08:30:53;;;;;;;8.10;3.08;;;;;;;5.62;100.00;103426.00;4973339;28;20567;-72
2021/12/19 08:33:21;;;;;;;8.82;2.75;;;;;;;5.67;100.00;103427.03;4969566;28;20050;-69
2021/12/19 08:35:49;;;;;;;7.68;2.80;;;;;;;5.64;100.00;103423.41;4973724;28;20879;-69
2021/12/19 08:38:17;;;;;;;8.90;3.13;;;;;;;5.68;100.00;103425.28;4971841;28;20117;-69
2021/12/19 08:40:47;;;;;;;6.40;2.85;;;;;;;5.70;100.00;103426.22;4973377;28;20214;-69
2021/12/19 08:43:20;;;;;;;5.85;2.20;;;;;;;5.70;100.00;103428.88;4972314;28;20815;-69
2021/12/19 08:45:52;;;;;;;4.97;2.08;;;;;;;5.69;100.00;103430.63;4975177;28;20288;-69
2021/12/19 08:48:20;;;;;;;9.07;2.60;;;;;;;5.71;100.00;103428.91;4970174;28;20090;-69
2021/12/19 08:50:52;;;;;;;6.15;2.10;;;;;;;5.76;100.00;103429.06;4967014;28;20073;-69
2021/12/19 08:53:20;;;;;;;5.60;2.35;;;;;;;5.79;100.00;103431.81;4972378;28;20062;-70
2021/12/19 08:55:49;;;;;;;6.47;2.25;;;;;;;5.78;100.00;103422.03;4973664;28;20546;-69
2021/12/19 08:58:18;;;;;;;7.55;2.30;;;;;;;5.75;100.00;103425.50;4969967;28;20061;-69
2021/12/19 09:00:46;;;;;;;4.53;1.98;;;;;;;5.77;100.00;103426.47;4970484;28;20061;-69
2021/12/19 09:03:17;;;;;;;5.13;1.77;;;;;;;5.78;100.00;103424.69;4969814;28;20078;-69
2021/12/19 09:05:46;;;;;;;5.10;1.90;;;;;;;5.79;100.00;103421.22;4971290;28;20149;-69
2021/12/19 09:08:15;;;;;;;5.22;2.60;;;;;;;5.80;100.00;103423.88;4971244;28;20615;-69
2021/12/19 09:10:44;;;;;;;4.72;1.88;;;;;;;5.86;100.00;103420.53;4970520;28;20115;-69
2021/12/19 09:13:14;;;;;;;5.40;2.65;;;;;;;5.90;100.00;103419.75;4973541;28;20066;-69
2021/12/19 09:15:43;;;;;;;6.07;2.08;;;;;;;5.93;100.00;103414.53;4972380;28;20302;-69
2021/12/19 09:18:13;;;;;;;3.05;1.48;;;;;;;5.93;100.00;103416.28;4971795;28;20062;-69
2021/12/19 09:20:42;;;;;;;4.25;1.67;;;;;;;5.97;100.00;103426.16;4969538;28;20140;-69
2021/12/19 09:23:11;;;;;;;6.55;2.00;;;;;;;6.01;100.00;103422.75;4972504;28;20054;-70
2021/12/19 09:25:40;;;;;;;5.57;2.38;;;;;;;6.04;100.00;103428.13;4969622;28;20146;-69
2021/12/19 09:28:08;;;;;;;3.50;1.48;;;;;;;5.97;100.00;103419.09;4970232;28;20063;-69
2021/12/19 09:30:36;;;;;;;6.50;1.92;;;;;;;6.01;100.00;103419.19;4955658;28;20264;-69
2021/12/19 09:33:05;;;;;;;7.43;2.15;;;;;;;5.96;100.00;103419.97;4973250;28;20058;-69
2021/12/19 09:35:34;;;;;;;6.18;1.77;;;;;;;5.95;100.00;103415.47;4971062;28;20673;-69
2021/12/19 09:38:03;;;;;;;3.67;1.83;;;;;;;5.94;100.00;103416.34;4972084;28;20074;-72
2021/12/19 09:40:35;;;;;;;3.42;1.80;;;;;;;5.95;100.00;103418.13;4973623;28;20053;-72
2021/12/19 09:43:05;;;;;;;3.45;1.95;;;;;;;5.97;100.00;103419.09;4973533;28;20565;-73
2021/12/19 09:45:34;;;;;;;7.07;2.08;;;;;;;6.00;100.00;103417.41;4969569;28;20503;-72
2021/12/19 09:48:02;;;;;;;3.22;1.73;;;;;;;5.98;100.00;103407.66;4971637;28;20054;-73
2021/12/19 09:50:31;;;;;;;5.13;1.92;;;;;;;6.04;100.00;103406.91;4969706;28;20076;-72
2021/12/19 09:52:59;;;;;;;2.78;1.50;;;;;;;6.04;100.00;103409.56;4969568;28;20914;-72
2021/12/19 09:55:29;;;;;;;5.45;2.00;;;;;;;6.01;100.00;103406.84;4970484;28;20144;-73
2021/12/19 09:57:57;;;;;;;9.07;2.30;;;;;;;6.08;100.00;103418.50;4971018;28;20499;-73
2021/12/19 10:00:25;;;;;;;3.25;1.55;;;;;;;6.01;100.00;103417.44;4972736;28;20141;-72
2021/12/19 10:02:54;;;;;;;4.93;2.17;;;;;;;6.03;100.00;103414.81;4973139;28;20512;-72
2021/12/19 10:05:24;;;;;;;8.38;3.03;;;;;;;6.05;100.00;103418.44;4968879;28;20080;-73
2021/12/19 10:07:55;;;;;;;5.40;2.17;;;;;;;6.10;100.00;103422.09;4969056;28;20054;-72
2021/12/19 10:10:41;;;;;;;2.95;1.88;;;;;;;6.04;100.00;103406.91;4970311;28;20050;-72
2021/12/19 10:13:09;;;;;;;5.70;2.25;;;;;;;6.08;100.00;103414.09;4970273;28;20447;-72
2021/12/19 10:15:39;;;;;;;5.68;1.92;;;;;;;6.10;100.00;103416.81;4972167;28;20440;-72
2021/12/19 10:18:09;;;;;;;3.20;1.75;;;;;;;6.14;100.00;103410.72;4971681;28;20089;-72
2021/12/19 10:20:46;;;;;;;2.67;1.50;;;;;;;6.13;100.00;103399.22;4968854;28;20060;-72
2021/12/19 10:23:19;;;;;;;4.90;1.90;;;;;;;6.14;100.00;103402.75;4969164;28;20055;-69
2021/12/19 10:25:56;;;;;;;2.85;1.67;;;;;;;6.14;100.00;103413.38;4970377;28;20505;-69
2021/12/19 10:28:25;;;;;;;3.50;1.75;;;;;;;6.15;100.00;103394.84;4971078;28;20117;-71
2021/12/19 10:30:53;;;;;;;3.58;1.90;;;;;;;6.16;100.00;103396.66;4969416;28;20054;-70
2021/12/19 10:33:23;;;;;;;4.60;2.00;;;;;;;6.19;100.00;103393.19;4969385;28;20077;-70
2021/12/19 10:35:54;;;;;;;4.90;2.10;;;;;;;6.20;100.00;103392.34;4970749;28;20062;-70
2021/12/19 10:38:29;;;;;;;3.50;2.10;;;;;;;6.17;100.00;103385.19;4969375;28;20062;-70
2021/12/19 10:41:00;;;;;;;3.58;2.08;;;;;;;6.21;100.00;103385.28;4969893;28;20063;-71
2021/12/19 10:43:44;;;;;;;4.47;2.00;;;;;;;6.21;100.00;103385.28;4970892;28;20141;-71
2021/12/19 10:46:14;;;;;;;6.43;2.42;;;;;;;6.21;100.00;103375.56;4972037;28;20053;-71
2021/12/19 10:48:44;;;;;;;5.20;2.17;;;;;;;6.25;100.00;103371.22;4971446;28;20050;-70
2021/12/19 10:51:16;;;;;;;5.03;2.53;;;;;;;6.26;100.00;103365.06;4971295;28;20053;-70
2021/12/19 10:53:52;;;;;;;6.60;2.47;;;;;;;6.28;100.00;103363.34;4971971;28;20153;-71
2021/12/19 10:56:22;;;;;;;7.50;2.28;;;;;;;6.25;100.00;103350.00;4970030;28;20145;-70
2021/12/19 10:58:55;;;;;;;8.52;2.72;;;;;;;6.23;100.00;103357.03;4956621;28;20104;-70
2021/12/19 11:01:30;;;;;;;9.50;3.50;;;;;;;6.25;100.00;103350.94;4969966;28;20059;-71
2021/12/19 11:04:02;;;;;;;8.55;2.83;;;;;;;6.27;100.00;103345.66;4969817;28;20066;-70
2021/12/19 11:06:39;;;;;;;7.57;2.83;;;;;;;6.26;100.00;103339.44;4969633;28;20057;-70
2021/12/19 11:09:13;;;;;;;7.60;2.65;;;;;;;6.30;100.00;103329.81;4969084;28;20051;-71
2021/12/19 11:11:43;;;;;;;;;;;;;;;6.33;100.00;103336.13;4972127;28;20062;-70
2021/12/19 11:14:16;;;;;;;10.50;2.92;;;;;;;6.33;100.00;103337.84;4971546;28;19922;-70
2021/12/19 11:16:47;;;;;;;8.90;3.42;;;;;;;6.32;100.00;103330.78;4970236;28;20068;-71
2021/12/19 11:19:16;;;;;;;8.88;3.50;;;;;;;6.38;100.00;103322.94;4973229;28;20083;-70
2021/12/19 11:22:01;;;;;;;6.70;3.08;;;;;;;6.38;100.00;103320.28;4970624;28;20061;-70
2021/12/19 11:24:31;;;;;;;6.18;3.22;;;;;;;6.39;100.00;103313.25;4970824;28;20062;-70
2021/12/19 11:27:02;;;;;;;12.48;4.35;;;;;;;6.42;100.00;103311.56;4966902;28;20054;-71
2021/12/19 11:29:32;;;;;;;10.93;3.50;;;;;;;6.44;100.00;103303.66;4972206;28;20058;-70
2021/12/19 11:32:04;;;;;;;9.10;3.50;;;;;;;6.50;100.00;103301.13;4970246;28;20097;-70
2021/12/19 11:34:53;;;;;;;12.75;3.63;;;;;;;6.49;100.00;103302.00;4960969;28;20920;-70
2021/12/19 11:37:26;;;;;;;10.05;3.83;;;;;;;6.51;100.00;103301.19;4965180;28;21302;-70
2021/12/19 11:39:57;;;;;;;11.70;3.40;;;;;;;6.52;100.00;103299.41;4971434;28;20062;-70
2021/12/19 11:42:32;;;;;;;10.40;4.03;;;;;;;6.53;100.00;103287.94;4971630;28;20492;-70
2021/12/19 11:45:18;;;;;;;13.00;3.28;;;;;;;6.47;100.00;103288.72;4971267;28;20541;-70
2021/12/19 11:47:51;;;;;;;8.43;3.40;;;;;;;6.50;100.00;103290.53;4967564;28;20139;-70
2021/12/19 11:50:25;;;;;;;10.85;3.53;;;;;;;6.45;100.00;103290.44;4973276;28;20128;-70
2021/12/19 11:52:57;;;;;;;11.05;3.75;;;;;;;6.40;100.00;103281.44;4971280;28;20503;-71
2021/12/19 11:55:30;;;;;;;13.20;3.40;;;;;;;6.40;100.00;103278.78;4960348;28;20088;-71
2021/12/19 11:58:20;;;;;;;8.85;3.30;;;;;;;6.46;100.00;103278.94;4974083;28;20062;-71
2021/12/19 12:00:54;;;;;;;12.77;3.38;;;;;;;6.44;100.00;103280.69;4972758;28;20065;-71
2021/12/19 12:03:34;;;;;;;11.10;4.03;;;;;;;6.42;100.00;103273.53;4972151;28;20082;-70
2021/12/19 12:06:39;;;;;;;13.85;3.47;;;;;;;6.40;100.00;103272.59;4971726;28;20411;-70
2021/12/19 12:09:24;;;;;;;8.68;3.45;;;;;;;6.38;100.00;103275.22;4974172;28;20053;-70
2021/12/19 12:12:13;;;;;;;11.20;3.65;;;;;;;6.42;100.00;103265.56;4975577;28;20058;-70
2021/12/19 12:14:50;;;;;;;11.93;3.65;;;;;;;6.41;100.00;103263.78;4973281;28;20101;-69
2021/12/19 12:17:27;;;;;;;11.63;3.65;;;;;;;6.41;100.00;103258.50;4975145;28;20066;-69
2021/12/19 12:20:01;;;;;;;6.43;3.63;;;;;;;6.38;100.00;103250.47;4971532;28;20054;-70
2021/12/19 12:22:34;;;;;;;;;;;;;;;6.39;100.00;103253.16;4974293;28;20059;-70
2021/12/19 12:25:12;;;;;;;14.40;3.55;;;;;;;6.39;100.00;103255.81;4974685;28;20056;-70
2021/12/19 12:27:44;;;;;;;10.32;3.83;;;;;;;6.39;100.00;103244.31;4972971;28;20571;-73
2021/12/19 12:30:13;;;;;;;11.77;3.95;;;;;;;6.37;100.00;103252.22;4973151;28;20118;-74
2021/12/19 12:32:42;;;;;;;12.27;4.15;;;;;;;6.36;100.00;103250.41;4973539;28;20064;-73